createdAt,value
2022-08-22T00:00:22.067Z,20.60
2022-08-22T00:02:41.888Z,23.60
2022-08-22T00:02:49.198Z,21.90
2022-08-22T00:02:53.142Z,22.80
2022-08-22T00:02:55.384Z,20.90
2022-08-22T00:02:56.161Z,23.80
2022-08-22T00:03:02.936Z,22.30
2022-08-22T00:03:18.550Z,20.60
2022-08-22T00:06:06.071Z,20.60
2022-08-22T00:09:10.481Z,20.60
2022-08-22T00:11:54.625Z,20.50
2022-08-22T00:14:32.080Z,20.50
2022-08-22T00:17:04.469Z,20.50
2022-08-22T00:19:53.323Z,20.50
2022-08-22T00:22:40.634Z,20.50
2022-08-22T00:25:31.743Z,20.40
2022-08-22T00:28:13.492Z,20.40
2022-08-22T00:30:49.910Z,20.40
2022-08-22T00:33:48.587Z,20.40
2022-08-22T00:36:24.658Z,20.40
2022-08-22T00:39:10.507Z,20.40
2022-08-22T00:42:03.977Z,20.40
2022-08-22T00:45:04.561Z,20.40
2022-08-22T00:47:40.183Z,20.40
2022-08-22T00:50:18.784Z,20.40
2022-08-22T00:53:10.783Z,20.30
2022-08-22T00:55:55.294Z,20.30
2022-08-22T00:58:49.879Z,20.30
2022-08-22T01:01:25.390Z,20.30
2022-08-22T01:04:13.615Z,20.20
2022-08-22T01:07:04.011Z,20.30
2022-08-22T01:10:10.452Z,20.20
2022-08-22T01:13:15.070Z,20.20
2022-08-22T01:15:43.423Z,20.30
2022-08-22T01:18:26.723Z,20.20
2022-08-22T01:21:11.948Z,20.20
2022-08-22T01:24:36.691Z,20.20
2022-08-22T01:27:27.655Z,20.20
2022-08-22T01:30:26.283Z,20.20
2022-08-22T01:33:16.416Z,20.20
2022-08-22T01:36:15.881Z,20.20
2022-08-22T01:38:57.563Z,20.10
2022-08-22T01:41:45.811Z,20.10
2022-08-22T01:44:40.804Z,20.20
2022-08-22T01:47:31.603Z,20.10
2022-08-22T01:50:21.076Z,20.10
2022-08-22T01:53:06.584Z,20.10
2022-08-22T01:55:52.601Z,20.10
2022-08-22T01:58:26.633Z,20.10
2022-08-22T02:01:16.807Z,20.10
2022-08-22T02:03:55.683Z,20.10
2022-08-22T02:06:37.655Z,20.10
2022-08-22T02:09:12.157Z,20.10
2022-08-22T02:11:52.539Z,20.10
2022-08-22T02:14:32.730Z,20.10
2022-08-22T02:17:17.590Z,20.10
2022-08-22T02:19:56.305Z,20.10
2022-08-22T02:22:51.641Z,20.10
2022-08-22T02:25:28.333Z,20.10
2022-08-22T02:28:09.009Z,20.10
2022-08-22T02:30:51.953Z,20.10
2022-08-22T02:33:50.297Z,20.10
2022-08-22T02:36:32.316Z,20.10
2022-08-22T02:39:13.073Z,20.10
2022-08-22T02:41:55.033Z,20.10
2022-08-22T02:44:42.682Z,20.10
2022-08-22T02:47:27.825Z,20.10
2022-08-22T02:50:03.347Z,20.10
2022-08-22T02:52:52.825Z,20.10
2022-08-22T02:55:29.650Z,20.10
2022-08-22T02:58:30.639Z,20.10
2022-08-22T03:01:03.431Z,20.00
2022-08-22T03:03:38.733Z,20.00
2022-08-22T03:06:26.664Z,20.00
2022-08-22T03:09:15.000Z,20.00
2022-08-22T03:11:49.307Z,20.00
2022-08-22T03:14:44.382Z,20.00
2022-08-22T03:17:25.383Z,20.00
2022-08-22T03:19:58.965Z,20.00
2022-08-22T03:22:34.637Z,20.00
2022-08-22T03:25:34.204Z,20.00
2022-08-22T03:28:24.802Z,19.90
2022-08-22T03:30:51.478Z,20.00
2022-08-22T03:33:22.584Z,19.90
2022-08-22T03:35:49.823Z,19.90
2022-08-22T03:38:34.704Z,19.90
2022-08-22T03:41:26.058Z,19.90
2022-08-22T03:44:37.807Z,19.90
2022-08-22T03:47:21.956Z,19.90
2022-08-22T03:50:23.008Z,19.90
2022-08-22T03:53:36.045Z,19.80
2022-08-22T03:56:24.825Z,19.80
2022-08-22T03:59:15.240Z,19.80
2022-08-22T04:01:47.810Z,19.90
2022-08-22T04:04:38.821Z,19.80
2022-08-22T04:07:36.607Z,19.80
2022-08-22T04:10:20.059Z,19.80
2022-08-22T04:13:19.637Z,19.80
2022-08-22T04:15:57.360Z,19.70
2022-08-22T04:18:33.401Z,19.80
2022-08-22T04:21:12.116Z,19.80
2022-08-22T04:24:10.747Z,19.80
2022-08-22T04:26:47.460Z,19.70
2022-08-22T04:29:38.880Z,19.80
2022-08-22T04:32:16.340Z,19.70
2022-08-22T04:34:51.313Z,19.80
2022-08-22T04:37:30.157Z,19.70
2022-08-22T04:40:23.077Z,19.70
2022-08-22T04:43:06.160Z,19.70
2022-08-22T04:45:40.934Z,19.70
2022-08-22T04:48:16.705Z,19.70
2022-08-22T04:50:47.813Z,19.70
2022-08-22T04:53:43.668Z,19.70
2022-08-22T04:56:44.905Z,19.70
2022-08-22T04:59:16.248Z,19.70
2022-08-22T05:01:53.912Z,19.70
2022-08-22T05:05:01.619Z,19.70
2022-08-22T05:07:39.764Z,19.70
2022-08-22T05:10:11.630Z,19.70
2022-08-22T05:12:49.728Z,19.60
2022-08-22T05:15:38.208Z,19.70
2022-08-22T05:18:09.872Z,19.60
2022-08-22T05:20:40.066Z,19.60
2022-08-22T05:23:17.878Z,19.60
2022-08-22T05:25:47.889Z,19.70
2022-08-22T05:28:31.244Z,19.60
2022-08-22T05:30:58.624Z,19.60
2022-08-22T05:33:33.271Z,19.60
2022-08-22T05:36:06.244Z,19.60
2022-08-22T05:38:41.588Z,19.60
2022-08-22T05:41:19.102Z,19.60
2022-08-22T05:43:48.371Z,19.60
2022-08-22T05:46:26.927Z,19.60
2022-08-22T05:49:00.264Z,19.60
2022-08-22T05:52:11.179Z,19.50
2022-08-22T05:54:51.341Z,19.50
2022-08-22T05:57:31.753Z,19.50
2022-08-22T06:00:12.028Z,19.50
2022-08-22T06:03:00.540Z,19.50
2022-08-22T06:05:30.798Z,19.50
2022-08-22T06:08:11.777Z,19.50
2022-08-22T06:10:49.156Z,19.50
2022-08-22T06:13:41.328Z,19.40
2022-08-22T06:16:14.024Z,19.40
2022-08-22T06:18:43.274Z,19.40
2022-08-22T06:21:20.820Z,19.40
2022-08-22T06:23:53.881Z,19.40
2022-08-22T06:26:21.622Z,19.40
2022-08-22T06:28:55.070Z,19.40
2022-08-22T06:31:33.916Z,19.40
2022-08-22T06:34:13.349Z,19.40
2022-08-22T06:36:44.229Z,19.40
2022-08-22T06:39:18.887Z,19.40
2022-08-22T06:41:59.517Z,19.40
2022-08-22T06:44:36.093Z,19.40
2022-08-22T06:47:06.666Z,19.40
2022-08-22T06:49:37.130Z,19.40
2022-08-22T06:52:11.605Z,19.40
2022-08-22T06:54:43.214Z,19.40
2022-08-22T06:57:34.744Z,19.40
2022-08-22T07:00:13.598Z,19.50
2022-08-22T07:02:48.008Z,19.50
2022-08-22T07:05:25.011Z,19.50
2022-08-22T07:07:52.866Z,19.50
2022-08-22T07:10:21.875Z,19.50
2022-08-22T07:12:52.014Z,19.60
2022-08-22T07:15:39.665Z,19.60
2022-08-22T07:18:21.739Z,19.60
2022-08-22T07:20:53.139Z,19.60
2022-08-22T07:23:45.871Z,19.70
2022-08-22T07:26:39.276Z,19.70
2022-08-22T07:29:35.833Z,19.70
2022-08-22T07:32:13.517Z,19.70
2022-08-22T07:34:46.407Z,19.70
2022-08-22T07:37:40.028Z,19.80
2022-08-22T07:40:32.747Z,19.80
2022-08-22T07:43:32.192Z,19.90
2022-08-22T07:46:07.989Z,20.00
2022-08-22T07:48:59.301Z,20.00
2022-08-22T07:51:40.242Z,20.10
2022-08-22T07:54:11.263Z,20.10
2022-08-22T07:56:48.653Z,20.20
2022-08-22T07:59:18.839Z,20.30
2022-08-22T08:01:54.758Z,20.40
2022-08-22T08:04:26.201Z,20.40
2022-08-22T08:06:57.513Z,20.50
2022-08-22T08:09:28.325Z,20.60
2022-08-22T08:11:55.485Z,20.60
2022-08-22T08:14:25.139Z,20.70
2022-08-22T08:17:03.171Z,20.80
2022-08-22T08:19:33.942Z,20.80
2022-08-22T08:22:01.602Z,20.90
2022-08-22T08:24:40.819Z,21.00
2022-08-22T08:27:40.615Z,21.10
2022-08-22T08:30:19.688Z,21.10
2022-08-22T08:32:59.672Z,21.10
2022-08-22T08:36:02.746Z,21.20
2022-08-22T08:38:38.893Z,21.20
2022-08-22T08:41:31.997Z,21.30
2022-08-22T08:44:15.545Z,21.40
2022-08-22T08:47:26.423Z,21.40
2022-08-22T08:50:10.640Z,21.50
2022-08-22T08:52:52.910Z,21.60
2022-08-22T08:55:51.159Z,21.70
2022-08-22T08:58:31.848Z,21.70
2022-08-22T09:01:16.423Z,21.80
2022-08-22T09:04:19.567Z,21.90
2022-08-22T09:07:32.599Z,22.00
2022-08-22T09:10:39.120Z,22.10
2022-08-22T09:13:44.816Z,22.20
2022-08-22T09:16:25.674Z,22.40
2022-08-22T09:19:11.228Z,22.50
2022-08-22T09:22:15.298Z,22.60
2022-08-22T09:24:54.877Z,22.70
2022-08-22T09:27:36.987Z,22.80
2022-08-22T09:30:15.510Z,22.90
2022-08-22T09:33:06.085Z,23.00
2022-08-22T09:35:51.756Z,23.10
2022-08-22T09:38:32.510Z,23.20
2022-08-22T09:41:32.643Z,23.20
2022-08-22T09:44:13.864Z,23.30
2022-08-22T09:46:57.881Z,23.40
2022-08-22T09:49:51.323Z,23.50
2022-08-22T09:52:36.799Z,23.50
2022-08-22T09:55:13.428Z,23.60
2022-08-22T09:57:59.607Z,23.70
2022-08-22T10:00:47.273Z,23.70
2022-08-22T10:04:12.038Z,23.80
2022-08-22T10:06:51.271Z,23.80
2022-08-22T10:09:31.440Z,23.90
2022-08-22T10:12:06.916Z,24.00
2022-08-22T10:15:19.380Z,24.10
2022-08-22T10:18:12.401Z,24.10
2022-08-22T10:21:10.624Z,24.10
2022-08-22T10:24:01.601Z,24.20
2022-08-22T10:26:53.182Z,24.40
2022-08-22T10:29:41.219Z,24.40
2022-08-22T10:32:27.375Z,24.60
2022-08-22T10:35:08.760Z,24.70
2022-08-22T10:37:52.896Z,24.80
2022-08-22T10:40:51.974Z,25.00
2022-08-22T10:43:45.701Z,25.10
2022-08-22T10:46:50.745Z,25.20
2022-08-22T10:49:31.373Z,25.40
2022-08-22T10:52:15.374Z,25.60
2022-08-22T10:55:05.720Z,25.80
2022-08-22T10:57:58.936Z,26.00
2022-08-22T11:00:46.353Z,26.20
2022-08-22T11:03:33.450Z,26.40
2022-08-22T11:06:05.450Z,26.60
2022-08-22T11:09:12.193Z,26.80
2022-08-22T11:11:54.513Z,26.90
2022-08-22T11:14:47.450Z,27.10
2022-08-22T11:17:30.319Z,27.40
2022-08-22T11:20:23.377Z,27.60
2022-08-22T11:23:22.854Z,27.70
2022-08-22T11:26:07.549Z,27.90
2022-08-22T11:28:39.936Z,28.10
2022-08-22T11:31:38.419Z,28.30
2022-08-22T11:34:34.883Z,28.40
2022-08-22T11:37:14.363Z,28.60
2022-08-22T11:39:49.141Z,28.70
2022-08-22T11:42:37.272Z,28.90
2022-08-22T11:45:21.655Z,29.10
2022-08-22T11:48:00.436Z,29.20
2022-08-22T11:50:39.551Z,29.30
2022-08-22T11:53:24.491Z,29.50
2022-08-22T11:56:19.024Z,29.60
2022-08-22T11:59:11.433Z,29.70
2022-08-22T12:01:42.585Z,29.90
2022-08-22T12:04:20.903Z,30.00
2022-08-22T12:06:56.294Z,30.10
2022-08-22T12:09:29.730Z,30.30
2022-08-22T12:12:15.500Z,30.40
2022-08-22T12:15:09.169Z,30.50
2022-08-22T12:18:01.426Z,30.60
2022-08-22T12:20:53.592Z,31.40
2022-08-22T12:23:50.380Z,31.00
2022-08-22T12:26:38.816Z,31.00
2022-08-22T12:29:23.314Z,31.10
2022-08-22T12:32:10.097Z,31.10
2022-08-22T12:35:03.737Z,31.30
2022-08-22T12:37:59.502Z,31.30
2022-08-22T12:40:50.879Z,31.40
2022-08-22T12:43:42.581Z,31.60
2022-08-22T12:46:23.781Z,31.60
2022-08-22T12:49:17.196Z,31.60
2022-08-22T12:52:08.071Z,31.80
2022-08-22T12:54:46.138Z,31.80
2022-08-22T12:58:00.838Z,31.90
2022-08-22T13:00:43.666Z,32.00
2022-08-22T13:03:32.504Z,32.10
2022-08-22T13:06:04.748Z,32.10
2022-08-22T13:08:44.596Z,32.10
2022-08-22T13:11:23.249Z,32.20
2022-08-22T13:13:56.654Z,32.20
2022-08-22T13:16:26.043Z,32.40
2022-08-22T13:18:57.536Z,32.40
2022-08-22T13:21:36.019Z,32.40
2022-08-22T13:24:16.824Z,32.50
2022-08-22T13:26:59.246Z,32.50
2022-08-22T13:29:42.747Z,32.60
2022-08-22T13:32:24.121Z,32.50
2022-08-22T13:34:56.782Z,32.40
2022-08-22T13:37:44.281Z,32.40
2022-08-22T13:40:23.352Z,32.40
2022-08-22T13:42:54.388Z,32.30
2022-08-22T13:45:27.821Z,32.20
2022-08-22T13:47:59.532Z,32.10
2022-08-22T13:50:35.838Z,32.10
2022-08-22T13:54:00.691Z,32.00
2022-08-22T13:56:47.348Z,32.00
2022-08-22T13:59:50.054Z,31.90
2022-08-22T14:02:43.426Z,31.80
2022-08-22T14:05:16.644Z,31.80
2022-08-22T14:08:13.067Z,31.70
2022-08-22T14:10:49.204Z,31.70
2022-08-22T14:13:30.520Z,31.70
2022-08-22T14:16:10.461Z,31.70
2022-08-22T14:18:44.395Z,31.70
2022-08-22T14:21:33.440Z,31.70
2022-08-22T14:24:29.951Z,31.70
2022-08-22T14:27:10.917Z,31.70
2022-08-22T14:29:57.919Z,31.60
2022-08-22T14:32:44.555Z,31.60
2022-08-22T14:35:23.539Z,31.60
2022-08-22T14:38:36.597Z,31.50
2022-08-22T14:41:09.904Z,31.50
2022-08-22T14:43:45.173Z,31.30
2022-08-22T14:46:21.477Z,31.30
2022-08-22T14:48:56.079Z,31.20
2022-08-22T14:51:25.477Z,31.20
2022-08-22T14:53:52.527Z,31.10
2022-08-22T14:56:24.141Z,31.10
2022-08-22T14:59:00.877Z,31.10
2022-08-22T15:01:33.288Z,31.10
2022-08-22T15:04:18.880Z,31.10
2022-08-22T15:06:54.943Z,31.00
2022-08-22T15:09:35.858Z,31.00
2022-08-22T15:12:07.314Z,30.90
2022-08-22T15:14:37.153Z,30.90
2022-08-22T15:17:08.622Z,30.80
2022-08-22T15:19:43.093Z,30.80
2022-08-22T15:22:27.565Z,30.70
2022-08-22T15:25:18.216Z,30.60
2022-08-22T15:27:56.460Z,30.50
2022-08-22T15:30:58.628Z,30.50
2022-08-22T15:33:39.067Z,30.40
2022-08-22T15:36:24.632Z,30.30
2022-08-22T15:38:55.178Z,30.20
2022-08-22T15:41:36.329Z,30.10
2022-08-22T15:44:31.065Z,30.10
2022-08-22T15:47:10.888Z,30.00
2022-08-22T15:49:58.869Z,29.90
2022-08-22T15:52:35.474Z,29.80
2022-08-22T15:55:23.936Z,29.70
2022-08-22T15:58:02.483Z,29.60
2022-08-22T16:00:43.791Z,29.60
2022-08-22T16:03:14.891Z,29.40
2022-08-22T16:05:55.598Z,29.40
2022-08-22T16:08:36.256Z,29.20
2022-08-22T16:11:02.865Z,29.10
2022-08-22T16:13:29.780Z,29.10
2022-08-22T16:16:02.300Z,29.00
2022-08-22T16:18:49.210Z,28.90
2022-08-22T16:21:22.645Z,28.80
2022-08-22T16:23:56.542Z,28.70
2022-08-22T16:26:24.518Z,28.60
2022-08-22T16:29:03.045Z,28.60
2022-08-22T16:31:56.763Z,28.50
2022-08-22T16:34:38.213Z,28.40
2022-08-22T16:37:21.474Z,28.20
2022-08-22T16:40:01.695Z,28.20
2022-08-22T16:42:35.955Z,28.10
2022-08-22T16:45:02.750Z,28.00
2022-08-22T16:47:41.479Z,27.90
2022-08-22T16:50:23.168Z,27.90
2022-08-22T16:53:04.622Z,27.80
2022-08-22T16:55:31.236Z,27.70
2022-08-22T16:58:16.583Z,27.70
2022-08-22T17:00:58.096Z,27.60
2022-08-22T17:03:36.778Z,27.50
2022-08-22T17:06:32.315Z,27.40
2022-08-22T17:09:20.809Z,27.30
2022-08-22T17:12:17.432Z,27.30
2022-08-22T17:15:26.418Z,27.10
2022-08-22T17:18:14.888Z,27.10
2022-08-22T17:20:44.852Z,27.10
2022-08-22T17:23:33.335Z,26.90
2022-08-22T17:26:25.482Z,26.90
2022-08-22T17:29:06.320Z,26.80
2022-08-22T17:32:06.676Z,26.70
2022-08-22T17:34:43.547Z,26.60
2022-08-22T17:37:57.304Z,26.60
2022-08-22T17:40:42.838Z,26.50
2022-08-22T17:43:48.993Z,26.50
2022-08-22T17:46:41.626Z,26.40
2022-08-22T17:49:11.827Z,26.30
2022-08-22T17:52:16.803Z,26.20
2022-08-22T17:54:56.824Z,26.20
2022-08-22T17:57:38.509Z,26.10
2022-08-22T18:00:31.176Z,26.10
2022-08-22T18:03:13.912Z,26.00
2022-08-22T18:05:59.256Z,25.90
2022-08-22T18:11:43.165Z,25.80
2022-08-22T18:14:35.641Z,25.70
2022-08-22T18:17:21.726Z,25.60
2022-08-22T18:20:07.639Z,25.60
2022-08-22T18:22:50.792Z,25.60
2022-08-22T18:25:17.409Z,25.50
2022-08-22T18:28:14.636Z,25.50
2022-08-22T18:30:47.410Z,25.40
2022-08-22T18:33:24.641Z,25.30
2022-08-22T18:36:19.172Z,25.20
2022-08-22T18:38:57.199Z,25.20
2022-08-22T18:41:46.877Z,25.10
2022-08-22T18:44:22.090Z,25.10
2022-08-22T18:46:51.652Z,25.00
2022-08-22T18:49:19.532Z,24.90
2022-08-22T18:52:08.263Z,24.80
2022-08-22T18:55:00.496Z,24.80
2022-08-22T18:57:38.789Z,24.70
2022-08-22T19:00:16.820Z,24.60
2022-08-22T19:03:21.355Z,24.60
2022-08-22T19:06:18.641Z,24.50
2022-08-22T19:09:13.746Z,24.40
2022-08-22T19:11:51.624Z,24.30
2022-08-22T19:14:43.007Z,24.20
2022-08-22T19:17:33.992Z,24.20
2022-08-22T19:20:27.775Z,24.10
2022-08-22T19:23:32.605Z,24.10
2022-08-22T19:26:23.460Z,24.00
2022-08-22T19:28:52.607Z,23.90
2022-08-22T19:31:41.120Z,23.90
2022-08-22T19:34:25.828Z,23.90
2022-08-22T19:37:11.476Z,23.70
2022-08-22T19:40:06.926Z,23.70
2022-08-22T19:42:36.703Z,23.70
2022-08-22T19:45:19.812Z,23.70
2022-08-22T19:48:14.519Z,23.60
2022-08-22T19:50:43.193Z,23.60
2022-08-22T19:53:36.193Z,23.60
2022-08-22T19:56:18.028Z,23.50
2022-08-22T19:59:14.832Z,23.50
2022-08-22T20:02:17.058Z,23.50
2022-08-22T20:05:06.328Z,23.40
2022-08-22T20:07:41.530Z,23.40
2022-08-22T20:10:38.888Z,23.40
2022-08-22T20:13:27.734Z,23.30
2022-08-22T20:16:07.098Z,23.30
2022-08-22T20:19:06.131Z,23.30
2022-08-22T20:21:46.155Z,23.20
2022-08-22T20:24:30.258Z,23.20
2022-08-22T20:27:15.631Z,23.10
2022-08-22T20:29:50.174Z,23.10
2022-08-22T20:32:19.700Z,23.10
2022-08-22T20:34:47.895Z,23.10
2022-08-22T20:37:32.228Z,23.00
2022-08-22T20:40:54.946Z,23.00
2022-08-22T20:43:55.273Z,22.90
2022-08-22T20:46:55.246Z,22.80
2022-08-22T20:49:28.581Z,22.80
2022-08-22T20:52:06.063Z,22.70
2022-08-22T20:54:37.924Z,22.70
2022-08-22T20:57:14.161Z,22.70
2022-08-22T20:59:49.371Z,22.60
2022-08-22T21:02:22.557Z,22.60
2022-08-22T21:04:56.903Z,22.60
2022-08-22T21:07:34.887Z,22.50
2022-08-22T21:10:24.254Z,22.50
2022-08-22T21:13:11.134Z,22.40
2022-08-22T21:15:44.922Z,22.40
2022-08-22T21:18:23.193Z,22.40
2022-08-22T21:20:50.615Z,22.30
2022-08-22T21:23:17.892Z,22.30
2022-08-22T21:25:59.073Z,22.20
2022-08-22T21:28:31.647Z,22.20
2022-08-22T21:31:01.495Z,22.20
2022-08-22T21:33:28.163Z,22.10
2022-08-22T21:35:59.786Z,22.10
2022-08-22T21:38:27.774Z,22.10
2022-08-22T21:41:01.757Z,22.10
2022-08-22T21:43:38.627Z,22.10
2022-08-22T21:46:06.867Z,22.10
2022-08-22T21:48:35.383Z,22.00
2022-08-22T21:51:28.411Z,22.00
2022-08-22T21:54:28.119Z,21.90
2022-08-22T21:56:59.309Z,21.90
2022-08-22T21:59:59.419Z,21.90
2022-08-22T22:02:29.532Z,21.80
2022-08-22T22:04:59.091Z,21.80
2022-08-22T22:07:26.823Z,21.80
2022-08-22T22:09:54.749Z,21.80
2022-08-22T22:12:22.917Z,21.70
2022-08-22T22:14:50.204Z,21.70
2022-08-22T22:17:18.764Z,21.70
2022-08-22T22:19:46.177Z,21.70
2022-08-22T22:22:13.221Z,21.70
2022-08-22T22:24:39.950Z,21.70
2022-08-22T22:27:07.091Z,21.70
2022-08-22T22:29:34.984Z,21.60
2022-08-22T22:32:01.836Z,21.70
2022-08-22T22:34:28.543Z,21.60
2022-08-22T22:36:55.357Z,21.60
2022-08-22T22:39:22.245Z,21.60
2022-08-22T22:41:49.056Z,21.60
2022-08-22T22:44:15.925Z,21.50
2022-08-22T22:46:42.525Z,21.50
2022-08-22T22:49:09.213Z,21.40
2022-08-22T22:51:35.939Z,21.40
2022-08-22T22:54:02.564Z,21.40
2022-08-22T22:56:29.460Z,21.40
2022-08-22T22:59:00.884Z,21.30
2022-08-22T23:02:09.728Z,21.30
2022-08-22T23:04:40.579Z,21.20
2022-08-22T23:07:09.339Z,21.20
2022-08-22T23:09:38.722Z,21.20
2022-08-22T23:12:13.412Z,21.20
2022-08-22T23:14:40.417Z,21.10
2022-08-22T23:17:08.332Z,21.10
2022-08-22T23:19:36.090Z,21.10
2022-08-22T23:22:03.204Z,21.10
2022-08-22T23:24:31.105Z,21.10
2022-08-22T23:26:58.532Z,21.00
2022-08-22T23:29:26.309Z,21.00
2022-08-22T23:31:56.634Z,21.00
2022-08-22T23:34:26.020Z,20.90
2022-08-22T23:36:55.496Z,20.90
2022-08-22T23:39:24.592Z,20.90
2022-08-22T23:41:51.348Z,20.90
2022-08-22T23:44:22.422Z,20.80
2022-08-22T23:46:49.717Z,20.90
2022-08-22T23:49:17.172Z,20.80
2022-08-22T23:51:45.068Z,20.80
2022-08-22T23:54:12.286Z,20.80
2022-08-22T23:56:47.907Z,20.80
2022-08-22T23:59:20.121Z,20.80
